Loma Mar, CA (94021)

6:19 AM PDT on August 22, 2014 (GMT -0700)
Alpine Road, La Honda | Change Station
CLOSE
Current Station
Personal Weather Station
Location: La Honda, CA
Elevation: 1276 ft
Nearby Weather Stations

Elev 1276 ft 37.29 °N, 122.23 °W | Updated 3 minutes ago

Overcast
Overcast
52.8 °F
Feels Like 52.8 °F
N
0.0
Wind Variable Wind from North
Gusts 1.0 mph

Today
High -- | Low -- °F
--% Chance of Precip.
Yesterday
High -- | Low -- °F
Precip. -- in
6:31 AM 7:51 PM
Waning Crescent, 8% visible
Pressure 29.93 in
Visibility 10.0 miles
Clouds Overcast 1000 ft
Dew Point 52 °F
Humidity 97%
Rainfall 0.00 in
Snow Depth Not available.
UV 0 out of 12
Pollen 5.70 out of 12
Air Quality Not available.
Flu Activity Not available.
METAR KNUQ 221256Z 36005KT 10SM OVC010 17/15 A2992 RMK AO2 SLP135 T01720150

More Conditions Fewer Conditions

Pressure 29.93 in
Visibility 10.0 miles
Clouds Overcast 1000 ft
Dew Point 52 °F
Humidity 97%
Rainfall 0.00 in
Snow Depth Not available.
UV 0 out of 12
Pollen 5.70 out of 12
Air Quality Not available.
Flu Activity Not available.
METAR KNUQ 221256Z 36005KT 10SM OVC010 17/15 A2992 RMK AO2 SLP135 T01720150

More Conditions Fewer Conditions

10-Day Weather Forecast

Almanac

Astronomy

Aug. 22, 2014 Rise Set
Actual Time 6:31 AM PDT 7:51 PM PDT
Civil Twilight 6:04 AM PDT 8:18 PM PDT
Nautical Twilight 5:31 AM PDT 8:51 PM PDT
Astronomical Twilight 4:57 AM PDT 9:25 PM PDT
Moon 4:00 AM PDT 6:02 PM PDT
Length of Visible Light 14h 14m
Length of Day
13h 20m
Tomorrow will be 2m 12s shorter.
Waning Crescent, 8% of the Moon is Illuminated
Today
Waning Crescent
Aug 25
New
Sep 2
First Quarter
Sep 8
Full
Sep 15
Last Quarter

Today's Extremes

State Highs State Lows

Community

WunderPhotos

Upload Photos

1,746,160 photos uploaded!

Nearby

Air Quality

  Air Quality AQ Index Pollutant
Friday Good
OZONE
Saturday Good
OZONE
Sunday Good
OZONE
Monday Good
OZONE
Tuesday Good
OZONE

Snow Depth

Station Depth Elevation
Blue Lakes 0 in 8000 ft
Forestdale Creek 0 in 8029 ft
Leavitt Lake 1 in 9400 ft
Ebbetts Pass 0 in 8700 ft
Echo Peak 1 in 7800 ft

Earthquake Activity

City Distance Mag. Time & Date
Berkeley, California 43 miles 2.6 7:41 PM PDT
2014-08-16
King City, California 100 miles 2.7 10:26 PM PDT
2014-08-15
Minimum magnitude displayed is 2.5.

Coastal Water Temperatures

Place Temperature
Monterey, CA 63.0 °F
Redwood City, CA 73.0 °F

Nearby Weather Stations